Back to Top

Language: 

My Weather Underground Personal Weather Station Historical Data with Graphs...

Delerius Weather Station Historical Data
Daily Summary for July 5, 2017 Units:  Metric    English   Both
« Previous Day
Next Day »
Daily Weekly Monthly Yearly Custom
  High: Low: Average:
Temperature: 21.1 °C 12.4 °C 16 °C
Dew Point: 15.2 °C 10.9 °C 13.3 °C
Humidity: 93 % 69 % 85 %
Wind Speed: 11.3 km/h 0 km/h 4 km/h
Wind Gust: 19.3 km/h - -
Wind:- - East
Pressure: 1019.5 hPa 1017.8 hPa -
Precipitation: 0 mm    
Historical Graphs
 
 
Tabular Data for July 5, 2017
Time Temperature Dew Point Pressure Wind Wind Speed Wind Gust Humidity Rainfall Rate (Hourly) solar Conditions
00:03 14.8 °C 12.3 °C 1018.2 hPa Calm     85 % 0 mm 0 W/m2
00:08 14.6 °C 12.1 °C 1017.8 hPa Calm   1.6 km/h 85 % 0 mm 0 W/m2
00:13 14.4 °C 11.9 °C 1017.8 hPa Calm   1.6 km/h 85 % 0 mm 0 W/m2
00:18 14.3 °C 12 °C 1017.8 hPa Calm     86 % 0 mm 0 W/m2
00:23 14.2 °C 11.9 °C 1017.8 hPa Calm     86 % 0 mm 0 W/m2
00:28 14.1 °C 11.8 °C 1017.8 hPa Calm     86 % 0 mm 0 W/m2
00:33 14 °C 11.7 °C 1017.8 hPa Calm     86 % 0 mm 0 W/m2
00:38 13.9 °C 11.8 °C 1017.8 hPa Calm     87 % 0 mm 0 W/m2
00:43 13.8 °C 11.7 °C 1017.8 hPa Calm     87 % 0 mm 0 W/m2
00:48 13.7 °C 11.7 °C 1017.8 hPa Calm     88 % 0 mm 0 W/m2
00:53 13.7 °C 11.7 °C 1017.8 hPa Calm     88 % 0 mm 0 W/m2
00:58 13.6 °C 11.7 °C 1017.8 hPa Calm   3.2 km/h 88 % 0 mm 0 W/m2
01:03 13.6 °C 11.7 °C 1017.8 hPa Calm   3.2 km/h 88 % 0 mm 0 W/m2
01:08 13.5 °C 11.7 °C 1017.8 hPa Calm     89 % 0 mm 0 W/m2
01:13 13.4 °C 11.6 °C 1017.8 hPa Calm   1.6 km/h 89 % 0 mm 0 W/m2
01:18 13.4 °C 11.8 °C 1017.8 hPa Calm   1.6 km/h 90 % 0 mm 0 W/m2
01:23 13.4 °C 11.8 °C 1017.8 hPa Calm   1.6 km/h 90 % 0 mm 0 W/m2
01:28 13.4 °C 11.6 °C 1017.8 hPa Calm   1.6 km/h 89 % 0 mm 0 W/m2
01:33 13.3 °C 11.5 °C 1017.8 hPa Calm   3.2 km/h 89 % 0 mm 0 W/m2
01:38 13.2 °C 11.4 °C 1017.8 hPa WSW 1.6 km/h 8 km/h 89 % 0 mm 0 W/m2
01:43 13.1 °C 11.3 °C 1017.8 hPa WSW 1.6 km/h 8 km/h 89 % 0 mm 0 W/m2
01:48 12.9 °C 11.3 °C 1017.8 hPa Calm   1.6 km/h 90 % 0 mm 0 W/m2
01:53 12.8 °C 11.2 °C 1018.2 hPa WSW 1.6 km/h 8 km/h 90 % 0 mm 0 W/m2
01:58 12.7 °C 11.1 °C 1018.2 hPa WSW 3.2 km/h 8 km/h 90 % 0 mm 0 W/m2
02:03 12.7 °C 11.3 °C 1017.8 hPa WSW 1.6 km/h 6.4 km/h 91 % 0 mm 0 W/m2
02:08 12.6 °C 11 °C 1017.8 hPa WSW 1.6 km/h 6.4 km/h 90 % 0 mm 0 W/m2
02:13 12.5 °C 10.9 °C 1018.2 hPa WSW 1.6 km/h 6.4 km/h 90 % 0 mm 0 W/m2
02:18 12.4 °C 10.9 °C 1017.8 hPa Calm   6.4 km/h 91 % 0 mm 0 W/m2
02:23 12.4 °C 10.9 °C 1017.8 hPa Calm   8 km/h 91 % 0 mm 0 W/m2
02:28 12.4 °C 11.1 °C 1017.8 hPa Calm   8 km/h 92 % 0 mm 0 W/m2
02:33 12.4 °C 11.1 °C 1018.2 hPa Calm   3.2 km/h 92 % 0 mm 0 W/m2
02:38 12.6 °C 11.3 °C 1017.8 hPa Calm   3.2 km/h 92 % 0 mm 0 W/m2
02:43 12.6 °C 11.3 °C 1017.8 hPa Calm     92 % 0 mm 0 W/m2
02:48 12.6 °C 11.3 °C 1017.8 hPa Calm     92 % 0 mm 0 W/m2
02:49 12.6 °C 11.3 °C 1017.8 hPa Calm     92 % 0 mm 0 W/m2
02:54 12.6 °C 11.3 °C 1017.8 hPa Calm     92 % 0 mm 0 W/m2
02:59 12.6 °C 11.3 °C 1017.8 hPa Calm   1.6 km/h 92 % 0 mm 0 W/m2
03:04 12.6 °C 11.3 °C 1017.8 hPa Calm   3.2 km/h 92 % 0 mm 0 W/m2
03:09 12.7 °C 11.4 °C 1017.8 hPa Calm   3.2 km/h 92 % 0 mm 0 W/m2
03:14 12.6 °C 11.3 °C 1017.8 hPa Calm     92 % 0 mm 0 W/m2
03:19 12.6 °C 11.3 °C 1017.8 hPa Calm   3.2 km/h 92 % 0 mm 0 W/m2
03:24 12.6 °C 11.3 °C 1017.8 hPa Calm   3.2 km/h 92 % 0 mm 0 W/m2
03:29 12.7 °C 11.4 °C 1017.8 hPa Calm   1.6 km/h 92 % 0 mm 0 W/m2
03:34 12.7 °C 11.4 °C 1017.8 hPa Calm   1.6 km/h 92 % 0 mm 0 W/m2
03:39 12.8 °C 11.6 °C 1017.8 hPa Calm   1.6 km/h 92 % 0 mm 0 W/m2
03:44 12.8 °C 11.6 °C 1017.8 hPa Calm   3.2 km/h 92 % 0 mm 0 W/m2
03:49 12.9 °C 11.8 °C 1017.8 hPa Calm   3.2 km/h 93 % 0 mm 0 W/m2
03:54 13 °C 11.7 °C 1017.8 hPa Calm     92 % 0 mm 0 W/m2
03:59 13.1 °C 11.8 °C 1017.8 hPa Calm     92 % 0 mm 0 W/m2
04:04 13.1 °C 11.8 °C 1017.8 hPa Calm     92 % 0 mm 0 W/m2
04:09 13.1 °C 11.8 °C 1017.8 hPa Calm     92 % 0 mm 0 W/m2
04:14 13.2 °C 11.9 °C 1017.8 hPa Calm     92 % 0 mm 0 W/m2
04:19 13.3 °C 12 °C 1017.8 hPa Calm     92 % 0 mm 0 W/m2
04:24 13.3 °C 12 °C 1017.8 hPa Calm     92 % 0 mm 0 W/m2
04:29 13.4 °C 12.1 °C 1017.8 hPa Calm     92 % 0 mm 0 W/m2
04:34 13.5 °C 12.2 °C 1017.8 hPa Calm     92 % 0 mm 0 W/m2
04:39 13.6 °C 12.3 °C 1018.2 hPa Calm     92 % 0 mm 0 W/m2
04:44 13.6 °C 12.3 °C 1018.2 hPa Calm     92 % 0 mm 0 W/m2
04:49 13.6 °C 12.3 °C 1018.2 hPa Calm     92 % 0 mm 0 W/m2
04:54 13.7 °C 12.4 °C 1018.2 hPa Calm     92 % 0 mm 0 W/m2
04:59 13.7 °C 12.3 °C 1018.2 hPa Calm     91 % 0 mm 0 W/m2
05:04 13.7 °C 12.3 °C 1018.2 hPa Calm     91 % 0 mm 5 W/m2
05:09 13.8 °C 12.3 °C 1018.2 hPa Calm     91 % 0 mm 7 W/m2
05:14 13.8 °C 12.3 °C 1018.2 hPa Calm     91 % 0 mm 9 W/m2
05:19 13.8 °C 12.3 °C 1018.2 hPa Calm     91 % 0 mm 9 W/m2
05:25 13.8 °C 12.3 °C 1018.2 hPa Calm     91 % 0 mm 11 W/m2
05:30 13.9 °C 12.4 °C 1018.2 hPa Calm   1.6 km/h 91 % 0 mm 14 W/m2
05:34 13.9 °C 12.4 °C 1018.2 hPa Calm   1.6 km/h 91 % 0 mm 12 W/m2
05:39 14 °C 12.6 °C 1018.2 hPa Calm     91 % 0 mm 14 W/m2
05:45 14.1 °C 12.7 °C 1018.2 hPa Calm     91 % 0 mm 16 W/m2
05:50 14.2 °C 12.8 °C 1018.2 hPa Calm     91 % 0 mm 14 W/m2
05:55 14.2 °C 12.8 °C 1018.2 hPa Calm     91 % 0 mm 11 W/m2
06:00 14.2 °C 12.8 °C 1018.2 hPa Calm     91 % 0 mm 9 W/m2
06:01 14.2 °C 12.8 °C 1018.2 hPa Calm     91 % 0 mm 9 W/m2
06:06 14.2 °C 12.8 °C 1018.2 hPa Calm     91 % 0 mm 9 W/m2
06:11 14.2 °C 12.8 °C 1018.5 hPa Calm     91 % 0 mm 9 W/m2
06:16 14.3 °C 12.8 °C 1018.5 hPa Calm     91 % 0 mm 11 W/m2
06:21 14.3 °C 12.8 °C 1018.5 hPa Calm   8 km/h 91 % 0 mm 11 W/m2
06:26 14.3 °C 12.8 °C 1018.5 hPa North 1.6 km/h 8 km/h 91 % 0 mm 16 W/m2
06:31 14.4 °C 12.9 °C 1018.5 hPa North 3.2 km/h 8 km/h 91 % 0 mm 21 W/m2
06:36 14.6 °C 13.3 °C 1018.5 hPa North 4.8 km/h 12.9 km/h 92 % 0 mm 26 W/m2
06:41 14.7 °C 13.4 °C 1018.5 hPa North 6.4 km/h 12.9 km/h 92 % 0 mm 28 W/m2
06:43 14.7 °C 13.4 °C 1018.5 hPa North 8 km/h 12.9 km/h 92 % 0 mm 28 W/m2
06:48 14.7 °C 13.4 °C 1018.5 hPa North 8 km/h 12.9 km/h 92 % 0 mm 26 W/m2
06:53 14.7 °C 13.4 °C 1018.5 hPa North 8 km/h 12.9 km/h 92 % 0 mm 46 W/m2
06:58 14.7 °C 13.4 °C 1018.5 hPa NNE 8 km/h 12.9 km/h 92 % 0 mm 26 W/m2
07:03 14.6 °C 13.3 °C 1018.5 hPa NNE 8 km/h 12.9 km/h 92 % 0 mm 33 W/m2
07:08 14.6 °C 13.3 °C 1018.5 hPa NNE 8 km/h 14.5 km/h 92 % 0 mm 42 W/m2
07:13 14.4 °C 13.1 °C 1018.8 hPa NNE 9.7 km/h 16.1 km/h 92 % 0 mm 40 W/m2
07:18 14.3 °C 13 °C 1018.8 hPa NNE 9.7 km/h 16.1 km/h 92 % 0 mm 51 W/m2
07:23 14.2 °C 12.9 °C 1018.8 hPa NNE 9.7 km/h 14.5 km/h 92 % 0 mm 42 W/m2
07:28 14.1 °C 12.8 °C 1018.8 hPa NNE 9.7 km/h 16.1 km/h 92 % 0 mm 44 W/m2
07:33 14 °C 12.7 °C 1018.8 hPa NNE 11.3 km/h 16.1 km/h 92 % 0 mm 47 W/m2
07:38 14 °C 12.7 °C 1018.8 hPa NNE 9.7 km/h 16.1 km/h 92 % 0 mm 60 W/m2
07:43 14.1 °C 12.8 °C 1018.5 hPa NNE 8 km/h 12.9 km/h 92 % 0 mm 42 W/m2
07:48 14.1 °C 12.8 °C 1018.8 hPa NNE 8 km/h 12.9 km/h 92 % 0 mm 33 W/m2
07:53 14.1 °C 12.8 °C 1018.8 hPa NNE 8 km/h 16.1 km/h 92 % 0 mm 98 W/m2
07:58 14.1 °C 12.8 °C 1018.8 hPa NNE 8 km/h 16.1 km/h 92 % 0 mm 84 W/m2
08:03 14.1 °C 12.8 °C 1018.8 hPa NNE 8 km/h 14.5 km/h 92 % 0 mm 74 W/m2
08:08 14.1 °C 13 °C 1018.8 hPa NNE 8 km/h 14.5 km/h 93 % 0 mm 70 W/m2
08:13 14.1 °C 13 °C 1018.8 hPa NNE 6.4 km/h 14.5 km/h 93 % 0 mm 58 W/m2
08:18 14 °C 12.9 °C 1018.8 hPa NE 4.8 km/h 12.9 km/h 93 % 0 mm 54 W/m2
08:23 13.9 °C 12.8 °C 1018.8 hPa NNE 4.8 km/h 12.9 km/h 93 % 0 mm 58 W/m2
08:28 13.9 °C 12.8 °C 1018.8 hPa NE 4.8 km/h 11.3 km/h 93 % 0 mm 77 W/m2
08:33 13.9 °C 12.6 °C 1018.8 hPa NE 6.4 km/h 11.3 km/h 92 % 0 mm 83 W/m2
08:38 13.9 °C 12.6 °C 1019.2 hPa NNE 6.4 km/h 11.3 km/h 92 % 0 mm 84 W/m2
08:43 14 °C 12.7 °C 1019.2 hPa NNE 4.8 km/h 11.3 km/h 92 % 0 mm 86 W/m2
08:48 14.1 °C 12.8 °C 1019.2 hPa North 4.8 km/h 11.3 km/h 92 % 0 mm 76 W/m2
08:53 14.1 °C 12.8 °C 1019.2 hPa North 4.8 km/h 9.7 km/h 92 % 0 mm 81 W/m2
08:58 14.1 °C 12.8 °C 1019.2 hPa North 4.8 km/h 9.7 km/h 92 % 0 mm 77 W/m2
09:03 14.1 °C 12.8 °C 1019.2 hPa North 3.2 km/h 9.7 km/h 92 % 0 mm 60 W/m2
09:08 14.1 °C 12.8 °C 1019.2 hPa North 3.2 km/h 11.3 km/h 92 % 0 mm 91 W/m2
09:13 14.1 °C 12.8 °C 1019.2 hPa North 4.8 km/h 11.3 km/h 92 % 0 mm 118 W/m2
09:14 14.1 °C 12.8 °C 1019.2 hPa North 4.8 km/h 11.3 km/h 92 % 0 mm 127 W/m2
09:19 14.1 °C 12.8 °C 1019.2 hPa North 4.8 km/h 11.3 km/h 92 % 0 mm 88 W/m2
09:24 14.1 °C 12.8 °C 1019.2 hPa NNE 4.8 km/h 9.7 km/h 92 % 0 mm 97 W/m2
09:29 14.1 °C 12.8 °C 1019.2 hPa NNE 4.8 km/h 9.7 km/h 92 % 0 mm 90 W/m2
09:34 14.1 °C 12.8 °C 1019.2 hPa NNE 1.6 km/h 11.3 km/h 92 % 0 mm 109 W/m2
09:39 14.1 °C 12.8 °C 1019.2 hPa North 3.2 km/h 11.3 km/h 92 % 0 mm 79 W/m2
09:44 14.1 °C 12.8 °C 1019.2 hPa NNE 4.8 km/h 9.7 km/h 92 % 0 mm 86 W/m2
09:49 14.1 °C 12.8 °C 1019.2 hPa NNE 6.4 km/h 11.3 km/h 92 % 0 mm 100 W/m2
09:54 14.1 °C 12.8 °C 1019.2 hPa NNE 4.8 km/h 11.3 km/h 92 % 0 mm 130 W/m2
09:59 14.2 °C 13.1 °C 1019.5 hPa North 3.2 km/h 9.7 km/h 93 % 0 mm 134 W/m2
10:04 14.3 °C 13.2 °C 1019.5 hPa NNW 6.4 km/h 12.9 km/h 93 % 0 mm 137 W/m2
10:09 14.3 °C 13.2 °C 1019.5 hPa North 6.4 km/h 12.9 km/h 93 % 0 mm 134 W/m2
10:14 14.4 °C 13.3 °C 1019.5 hPa North 4.8 km/h 12.9 km/h 93 % 0 mm 121 W/m2
10:19 14.4 °C 13.3 °C 1019.5 hPa NNE 3.2 km/h 9.7 km/h 93 % 0 mm 107 W/m2
10:24 14.5 °C 13.4 °C 1019.5 hPa North 3.2 km/h 9.7 km/h 93 % 0 mm 139 W/m2
10:25 14.5 °C 13.4 °C 1019.5 hPa North 3.2 km/h 11.3 km/h 93 % 0 mm 148 W/m2
10:30 14.6 °C 13.3 °C 1019.5 hPa NNW 3.2 km/h 12.9 km/h 92 % 0 mm 137 W/m2
10:35 14.6 °C 13.3 °C 1019.5 hPa NNW 4.8 km/h 12.9 km/h 92 % 0 mm 158 W/m2
10:40 14.6 °C 13.3 °C 1019.5 hPa NNW 4.8 km/h 11.3 km/h 92 % 0 mm 144 W/m2
10:45 14.5 °C 13.2 °C 1019.5 hPa North 4.8 km/h 9.7 km/h 92 % 0 mm 221 W/m2
10:50 14.6 °C 13.3 °C 1019.5 hPa NNE 4.8 km/h 9.7 km/h 92 % 0 mm 207 W/m2
10:55 14.7 °C 13.2 °C 1019.5 hPa NNE 4.8 km/h 12.9 km/h 91 % 0 mm 144 W/m2
11:00 14.7 °C 13.2 °C 1019.5 hPa North 4.8 km/h 12.9 km/h 91 % 0 mm 139 W/m2
11:05 14.8 °C 13.3 °C 1019.5 hPa NNE 4.8 km/h 12.9 km/h 91 % 0 mm 149 W/m2
11:10 14.8 °C 13.3 °C 1019.5 hPa North 6.4 km/h 12.9 km/h 91 % 0 mm 151 W/m2
11:11 14.8 °C 13.3 °C 1019.5 hPa North 6.4 km/h 12.9 km/h 91 % 0 mm 149 W/m2
11:16 14.9 °C 13.3 °C 1019.5 hPa North 4.8 km/h 11.3 km/h 90 % 0 mm 193 W/m2
11:21 14.9 °C 13.3 °C 1019.5 hPa NNE 3.2 km/h 11.3 km/h 90 % 0 mm 186 W/m2
11:26 14.9 °C 13.3 °C 1019.5 hPa NNE 4.8 km/h 11.3 km/h 90 % 0 mm 274 W/m2
11:31 15 °C 13.4 °C 1019.5 hPa NNE 3.2 km/h 9.7 km/h 90 % 0 mm 264 W/m2
11:36 15.2 °C 13.4 °C 1019.5 hPa NNE 1.6 km/h 9.7 km/h 89 % 0 mm 220 W/m2
11:41 15.3 °C 13.5 °C 1019.5 hPa NNE 3.2 km/h 11.3 km/h 89 % 0 mm 269 W/m2
11:46 15.5 °C 13.5 °C 1019.5 hPa NNE 4.8 km/h 11.3 km/h 88 % 0 mm 202 W/m2
11:51 15.7 °C 13.7 °C 1019.5 hPa NNE 3.2 km/h 9.7 km/h 88 % 0 mm 216 W/m2
11:56 15.7 °C 13.6 °C 1019.5 hPa NNE 3.2 km/h 11.3 km/h 87 % 0 mm 176 W/m2
12:01 15.8 °C 13.7 °C 1019.5 hPa NE 3.2 km/h 11.3 km/h 87 % 0 mm 176 W/m2
12:06 15.8 °C 13.7 °C 1019.5 hPa NE 3.2 km/h 9.7 km/h 87 % 0 mm 297 W/m2
12:11 15.9 °C 13.7 °C 1019.5 hPa NE 3.2 km/h 8 km/h 87 % 0 mm 431 W/m2
12:17 16.2 °C 14.1 °C 1019.5 hPa ENE 1.6 km/h 8 km/h 87 % 0 mm 357 W/m2
12:22 16.4 °C 14.1 °C 1019.5 hPa ENE 1.6 km/h 6.4 km/h 86 % 0 mm 353 W/m2
12:27 16.7 °C 14 °C 1019.5 hPa ENE 3.2 km/h 9.7 km/h 84 % 0 mm 329 W/m2
12:32 16.8 °C 14.1 °C 1019.5 hPa NE 4.8 km/h 11.3 km/h 84 % 0 mm 352 W/m2
12:37 16.8 °C 14.1 °C 1019.5 hPa NE 3.2 km/h 11.3 km/h 84 % 0 mm 315 W/m2
12:42 16.9 °C 14 °C 1019.5 hPa NE 1.6 km/h 8 km/h 83 % 0 mm 362 W/m2
12:47 17.2 °C 14.3 °C 1019.5 hPa NNE 1.6 km/h 9.7 km/h 83 % 0 mm 276 W/m2
12:52 17.3 °C 14.2 °C 1019.5 hPa NNE 1.6 km/h 9.7 km/h 82 % 0 mm 417 W/m2
12:57 17.6 °C 14.5 °C 1019.5 hPa NNE 1.6 km/h 8 km/h 82 % 0 mm 378 W/m2
13:02 17.8 °C 14.3 °C 1019.5 hPa NE 1.6 km/h 8 km/h 80 % 0 mm 308 W/m2
13:07 18 °C 14.3 °C 1019.5 hPa NE 1.6 km/h 8 km/h 79 % 0 mm 357 W/m2
13:12 18.2 °C 14.5 °C 1019.5 hPa North 1.6 km/h 8 km/h 79 % 0 mm 489 W/m2
13:17 18.3 °C 14.4 °C 1019.5 hPa NNW 1.6 km/h 8 km/h 78 % 0 mm 364 W/m2
13:22 18.4 °C 14.5 °C 1019.5 hPa NW 1.6 km/h 6.4 km/h 78 % 0 mm 403 W/m2
13:27 18.5 °C 14.6 °C 1019.5 hPa NE 1.6 km/h 9.7 km/h 78 % 0 mm 380 W/m2
13:32 18.6 °C 14.7 °C 1019.5 hPa ENE 3.2 km/h 9.7 km/h 78 % 0 mm 371 W/m2
13:37 18.6 °C 14.5 °C 1019.2 hPa ENE 3.2 km/h 9.7 km/h 77 % 0 mm 403 W/m2
13:42 18.7 °C 14.8 °C 1019.2 hPa ENE 3.2 km/h 9.7 km/h 78 % 0 mm 457 W/m2
13:47 18.9 °C 14.6 °C 1019.2 hPa North 3.2 km/h 9.7 km/h 76 % 0 mm 1053 W/m2
13:52 19.4 °C 14.8 °C 1019.2 hPa NNW 3.2 km/h 9.7 km/h 75 % 0 mm 1134 W/m2
13:57 19.9 °C 14.9 °C 1019.2 hPa North 3.2 km/h 9.7 km/h 73 % 0 mm 1146 W/m2
14:02 20.4 °C 14.9 °C 1019.2 hPa NNW 4.8 km/h 11.3 km/h 71 % 0 mm 656 W/m2
14:07 20.6 °C 14.9 °C 1019.2 hPa NNW 4.8 km/h 11.3 km/h 70 % 0 mm 339 W/m2
14:12 20.5 °C 14.6 °C 1019.2 hPa North 6.4 km/h 16.1 km/h 69 % 0 mm 332 W/m2
14:17 20.1 °C 14.7 °C 1019.2 hPa NNE 8 km/h 16.1 km/h 71 % 0 mm 267 W/m2
14:22 19.8 °C 14.8 °C 1019.2 hPa NE 8 km/h 12.9 km/h 73 % 0 mm 469 W/m2
14:27 19.7 °C 14.9 °C 1019.2 hPa ENE 6.4 km/h 12.9 km/h 74 % 0 mm 322 W/m2
14:32 19.5 °C 14.7 °C 1019.2 hPa ENE 4.8 km/h 9.7 km/h 74 % 0 mm 345 W/m2
14:37 19.5 °C 14.7 °C 1019.2 hPa NE 6.4 km/h 12.9 km/h 74 % 0 mm 288 W/m2
14:42 19.4 °C 14.7 °C 1019.2 hPa NE 6.4 km/h 12.9 km/h 74 % 0 mm 283 W/m2
14:43 19.4 °C 14.7 °C 1018.8 hPa NE 6.4 km/h 12.9 km/h 74 % 0 mm 283 W/m2
14:48 19.4 °C 14.4 °C 1018.8 hPa NNE 4.8 km/h 11.3 km/h 73 % 0 mm 362 W/m2
14:53 19.6 °C 14.6 °C 1018.8 hPa North 4.8 km/h 9.7 km/h 73 % 0 mm 577 W/m2
14:58 19.7 °C 14.5 °C 1018.8 hPa NNE 1.6 km/h 8 km/h 72 % 0 mm 591 W/m2
15:03 20.1 °C 15.1 °C 1018.8 hPa NE 4.8 km/h 14.5 km/h 73 % 0 mm 1051 W/m2
15:08 20.2 °C 14.8 °C 1018.8 hPa NE 6.4 km/h 14.5 km/h 71 % 0 mm 327 W/m2
15:13 20.1 °C 14.7 °C 1018.8 hPa NE 6.4 km/h 14.5 km/h 71 % 0 mm 387 W/m2
15:18 20 °C 14.6 °C 1018.8 hPa NE 4.8 km/h 12.9 km/h 71 % 0 mm 295 W/m2
15:23 20 °C 14.8 °C 1018.8 hPa NNE 3.2 km/h 9.7 km/h 72 % 0 mm 276 W/m2
15:28 20.1 °C 14.7 °C 1018.8 hPa North 4.8 km/h 11.3 km/h 71 % 0 mm 858 W/m2
15:33 20.4 °C 14.7 °C 1018.8 hPa North 4.8 km/h 11.3 km/h 70 % 0 mm 914 W/m2
15:38 20.8 °C 14.9 °C 1018.8 hPa East 3.2 km/h 9.7 km/h 69 % 0 mm 1023 W/m2
15:43 21.1 °C 15.2 °C 1018.8 hPa East 4.8 km/h 12.9 km/h 69 % 0 mm 292 W/m2
15:48 21 °C 15.1 °C 1018.8 hPa NE 6.4 km/h 12.9 km/h 69 % 0 mm 199 W/m2
15:53 20.6 °C 14.9 °C 1018.5 hPa NE 8 km/h 14.5 km/h 70 % 0 mm 195 W/m2
15:58 20.3 °C 14.9 °C 1018.5 hPa NE 8 km/h 14.5 km/h 71 % 0 mm 241 W/m2
16:03 20.1 °C 14.7 °C 1018.5 hPa NE 8 km/h 14.5 km/h 71 % 0 mm 287 W/m2
16:08 19.9 °C 14.5 °C 1018.5 hPa NE 9.7 km/h 14.5 km/h 71 % 0 mm 272 W/m2
16:13 19.8 °C 14.8 °C 1018.5 hPa NE 9.7 km/h 19.3 km/h 73 % 0 mm 316 W/m2
16:18 19.7 °C 14.9 °C 1018.5 hPa NE 9.7 km/h 19.3 km/h 74 % 0 mm 325 W/m2
16:23 19.6 °C 14.6 °C 1018.5 hPa ENE 8 km/h 16.1 km/h 73 % 0 mm 285 W/m2
16:28 19.6 °C 14.6 °C 1018.5 hPa ENE 9.7 km/h 19.3 km/h 73 % 0 mm 274 W/m2
16:30 19.6 °C 14.8 °C 1018.5 hPa ENE 9.7 km/h 19.3 km/h 74 % 0 mm 406 W/m2
16:36 19.6 °C 14.8 °C 1018.5 hPa NE 9.7 km/h 19.3 km/h 74 % 0 mm 308 W/m2
16:41 19.6 °C 14.8 °C 1018.5 hPa ENE 8 km/h 14.5 km/h 74 % 0 mm 243 W/m2
16:46 19.6 °C 14.6 °C 1018.5 hPa ENE 8 km/h 16.1 km/h 73 % 0 mm 260 W/m2
16:51 19.6 °C 14.6 °C 1018.5 hPa ENE 8 km/h 16.1 km/h 73 % 0 mm 292 W/m2
16:56 19.8 °C 15.1 °C 1018.5 hPa NE 6.4 km/h 16.1 km/h 74 % 0 mm 355 W/m2
17:01 19.8 °C 14.8 °C 1018.5 hPa ENE 8 km/h 16.1 km/h 73 % 0 mm 330 W/m2
17:06 19.8 °C 15.1 °C 1018.2 hPa ENE 9.7 km/h 16.1 km/h 74 % 0 mm 508 W/m2
17:11 19.9 °C 14.9 °C 1018.2 hPa NE 8 km/h 16.1 km/h 73 % 0 mm 469 W/m2
17:16 20.1 °C 14.9 °C 1018.2 hPa NE 8 km/h 16.1 km/h 72 % 0 mm 478 W/m2
17:21 20.1 °C 14.7 °C 1018.2 hPa NE 8 km/h 14.5 km/h 71 % 0 mm 360 W/m2
17:26 20.1 °C 14.7 °C 1018.2 hPa NNE 8 km/h 14.5 km/h 71 % 0 mm 350 W/m2
17:31 20.2 °C 15 °C 1018.2 hPa NNE 8 km/h 14.5 km/h 72 % 0 mm 547 W/m2
17:36 20.2 °C 14.8 °C 1018.2 hPa NE 8 km/h 12.9 km/h 71 % 0 mm 302 W/m2
17:41 20.3 °C 14.9 °C 1018.2 hPa NE 8 km/h 17.7 km/h 71 % 0 mm 195 W/m2
17:46 20.1 °C 14.7 °C 1018.2 hPa ENE 8 km/h 17.7 km/h 71 % 0 mm 160 W/m2
17:51 20 °C 14.6 °C 1018.2 hPa East 8 km/h 16.1 km/h 71 % 0 mm 169 W/m2
17:56 19.8 °C 14.6 °C 1018.2 hPa East 6.4 km/h 12.9 km/h 72 % 0 mm 121 W/m2
18:01 19.7 °C 14.7 °C 1018.2 hPa East 8 km/h 16.1 km/h 73 % 0 mm 146 W/m2
18:06 19.6 °C 14.8 °C 1018.2 hPa ENE 8 km/h 16.1 km/h 74 % 0 mm 172 W/m2
18:11 19.5 °C 14.9 °C 1018.2 hPa ENE 6.4 km/h 16.1 km/h 75 % 0 mm 113 W/m2
18:16 19.5 °C 14.7 °C 1018.2 hPa ENE 6.4 km/h 14.5 km/h 74 % 0 mm 149 W/m2
18:21 19.4 °C 14.7 °C 1018.2 hPa ENE 8 km/h 12.9 km/h 74 % 0 mm 318 W/m2
18:26 19.4 °C 14.7 °C 1018.2 hPa ENE 6.4 km/h 12.9 km/h 74 % 0 mm 221 W/m2
18:31 19.5 °C 14.7 °C 1017.8 hPa East 4.8 km/h 12.9 km/h 74 % 0 mm 144 W/m2
18:36 19.6 °C 14.8 °C 1017.8 hPa ESE 4.8 km/h 12.9 km/h 74 % 0 mm 104 W/m2
18:42 19.5 °C 14.7 °C 1018.2 hPa East 6.4 km/h 14.5 km/h 74 % 0 mm 104 W/m2
18:47 19.3 °C 14.6 °C 1018.2 hPa East 6.4 km/h 14.5 km/h 74 % 0 mm 105 W/m2
18:52 19.2 °C 14.7 °C 1018.2 hPa ENE 4.8 km/h 12.9 km/h 75 % 0 mm 97 W/m2
18:57 19.2 °C 14.7 °C 1018.2 hPa ENE 3.2 km/h 9.7 km/h 75 % 0 mm 65 W/m2
19:02 19.2 °C 14.7 °C 1018.2 hPa East 3.2 km/h 9.7 km/h 75 % 0 mm 60 W/m2
19:07 19.2 °C 14.9 °C 1018.2 hPa ESE 1.6 km/h 9.7 km/h 76 % 0 mm 67 W/m2
19:12 19.1 °C 14.8 °C 1018.2 hPa ENE 3.2 km/h 12.9 km/h 76 % 0 mm 42 W/m2
19:17 19.1 °C 14.6 °C 1018.2 hPa East 4.8 km/h 12.9 km/h 75 % 0 mm 58 W/m2
19:22 18.9 °C 14.4 °C 1018.2 hPa East 6.4 km/h 12.9 km/h 75 % 0 mm 83 W/m2
19:27 18.9 °C 14.6 °C 1018.2 hPa ENE 4.8 km/h 12.9 km/h 76 % 0 mm 81 W/m2
19:32 18.8 °C 14.5 °C 1018.2 hPa NE 6.4 km/h 12.9 km/h 76 % 0 mm 58 W/m2
19:37 18.8 °C 14.7 °C 1018.2 hPa NE 8 km/h 14.5 km/h 77 % 0 mm 28 W/m2
19:42 18.6 °C 14.5 °C 1018.2 hPa ENE 6.4 km/h 14.5 km/h 77 % 0 mm 26 W/m2
19:47 18.5 °C 14.6 °C 1018.2 hPa ENE 8 km/h 14.5 km/h 78 % 0 mm 25 W/m2
19:52 18.4 °C 14.5 °C 1018.2 hPa ENE 6.4 km/h 12.9 km/h 78 % 0 mm 26 W/m2
19:57 18.3 °C 14.6 °C 1018.2 hPa ENE 6.4 km/h 12.9 km/h 79 % 0 mm 30 W/m2
20:02 18.2 °C 14.5 °C 1018.2 hPa East 4.8 km/h 12.9 km/h 79 % 0 mm 39 W/m2
20:07 18.1 °C 14.4 °C 1018.5 hPa East 6.4 km/h 16.1 km/h 79 % 0 mm 32 W/m2
20:12 18.1 °C 14.4 °C 1018.5 hPa ENE 6.4 km/h 16.1 km/h 79 % 0 mm 25 W/m2
20:13 18.1 °C 14.4 °C 1018.5 hPa ENE 6.4 km/h 16.1 km/h 79 % 0 mm 25 W/m2
20:18 18 °C 14.3 °C 1018.5 hPa ENE 6.4 km/h 14.5 km/h 79 % 0 mm 21 W/m2
20:23 17.9 °C 14.4 °C 1018.5 hPa ENE 6.4 km/h 14.5 km/h 80 % 0 mm 23 W/m2
20:28 17.8 °C 14.3 °C 1018.5 hPa East 4.8 km/h 12.9 km/h 80 % 0 mm 19 W/m2
20:33 17.8 °C 14.3 °C 1018.5 hPa East 4.8 km/h 14.5 km/h 80 % 0 mm 14 W/m2
20:38 17.7 °C 14.2 °C 1018.5 hPa ENE 6.4 km/h 14.5 km/h 80 % 0 mm 9 W/m2
20:43 17.6 °C 14.3 °C 1018.5 hPa ENE 6.4 km/h 14.5 km/h 81 % 0 mm 9 W/m2
20:48 17.4 °C 13.9 °C 1018.5 hPa ENE 8 km/h 16.1 km/h 80 % 0 mm 9 W/m2
20:53 17.3 °C 14 °C 1018.5 hPa ENE 8 km/h 16.1 km/h 81 % 0 mm 9 W/m2
20:58 17.3 °C 14 °C 1018.5 hPa ENE 6.4 km/h 19.3 km/h 81 % 0 mm 7 W/m2
21:03 17.2 °C 13.9 °C 1018.5 hPa ENE 8 km/h 19.3 km/h 81 % 0 mm 5 W/m2
21:08 17 °C 13.9 °C 1018.5 hPa East 9.7 km/h 17.7 km/h 82 % 0 mm 5 W/m2
21:13 16.8 °C 13.9 °C 1018.8 hPa East 8 km/h 17.7 km/h 83 % 0 mm 5 W/m2
21:18 16.8 °C 13.9 °C 1018.5 hPa East 6.4 km/h 14.5 km/h 83 % 0 mm 0 W/m2
21:23 16.7 °C 13.8 °C 1018.8 hPa ENE 6.4 km/h 12.9 km/h 83 % 0 mm 0 W/m2
21:28 16.5 °C 13.6 °C 1018.8 hPa ENE 6.4 km/h 12.9 km/h 83 % 0 mm 0 W/m2
21:33 16.4 °C 13.7 °C 1018.8 hPa ENE 8 km/h 12.9 km/h 84 % 0 mm 0 W/m2
21:38 16.3 °C 13.6 °C 1018.8 hPa ENE 8 km/h 16.1 km/h 84 % 0 mm 0 W/m2
21:43 16.2 °C 13.5 °C 1019.2 hPa ENE 6.4 km/h 16.1 km/h 84 % 0 mm 0 W/m2
21:48 16.1 °C 13.6 °C 1019.2 hPa ENE 6.4 km/h 12.9 km/h 85 % 0 mm 0 W/m2
21:53 16 °C 13.5 °C 1019.2 hPa ENE 6.4 km/h 12.9 km/h 85 % 0 mm 0 W/m2
21:58 15.8 °C 13.3 °C 1019.2 hPa ENE 8 km/h 14.5 km/h 85 % 0 mm 0 W/m2
22:03 15.7 °C 13.2 °C 1019.2 hPa ENE 8 km/h 14.5 km/h 85 % 0 mm 0 W/m2
22:08 15.6 °C 13.1 °C 1019.2 hPa ENE 6.4 km/h 14.5 km/h 85 % 0 mm 0 W/m2
22:13 15.5 °C 13 °C 1019.2 hPa ENE 4.8 km/h 14.5 km/h 85 % 0 mm 0 W/m2
22:18 15.4 °C 12.9 °C 1019.2 hPa ENE 6.4 km/h 14.5 km/h 85 % 0 mm 0 W/m2
22:23 15.3 °C 12.9 °C 1019.2 hPa ENE 6.4 km/h 14.5 km/h 86 % 0 mm 0 W/m2
22:28 15.3 °C 12.9 °C 1019.2 hPa ENE 6.4 km/h 14.5 km/h 86 % 0 mm 0 W/m2
22:33 15.2 °C 12.9 °C 1019.2 hPa ENE 6.4 km/h 12.9 km/h 86 % 0 mm 0 W/m2
22:38 15.2 °C 13.1 °C 1019.2 hPa ENE 4.8 km/h 11.3 km/h 87 % 0 mm 0 W/m2
22:43 15.2 °C 13.1 °C 1019.2 hPa ENE 4.8 km/h 9.7 km/h 87 % 0 mm 0 W/m2
22:48 15.1 °C 12.9 °C 1019.2 hPa ENE 3.2 km/h 9.7 km/h 87 % 0 mm 0 W/m2
22:53 15.1 °C 12.9 °C 1019.2 hPa ENE 3.2 km/h 9.7 km/h 87 % 0 mm 0 W/m2
22:58 15.1 °C 12.9 °C 1019.2 hPa East 1.6 km/h 9.7 km/h 87 % 0 mm 0 W/m2
23:04 15 °C 13 °C 1018.8 hPa East 3.2 km/h 9.7 km/h 88 % 0 mm 0 W/m2
23:09 15 °C 13 °C 1018.8 hPa ESE 1.6 km/h 9.7 km/h 88 % 0 mm 0 W/m2
23:14 15 °C 13 °C 1018.8 hPa ESE 1.6 km/h 6.4 km/h 88 % 0 mm 0 W/m2
23:19 14.9 °C 12.9 °C 1018.8 hPa ENE 1.6 km/h 8 km/h 88 % 0 mm 0 W/m2
23:24 14.9 °C 12.9 °C 1018.8 hPa ENE 1.6 km/h 8 km/h 88 % 0 mm 0 W/m2
23:29 14.9 °C 13.1 °C 1019.2 hPa East 1.6 km/h 8 km/h 89 % 0 mm 0 W/m2
23:34 14.9 °C 12.9 °C 1018.8 hPa ESE 3.2 km/h 9.7 km/h 88 % 0 mm 0 W/m2
23:39 14.9 °C 13.1 °C 1018.8 hPa ESE 3.2 km/h 9.7 km/h 89 % 0 mm 0 W/m2
23:44 14.9 °C 12.9 °C 1018.8 hPa East 3.2 km/h 8 km/h 88 % 0 mm 0 W/m2
23:49 14.8 °C 13 °C 1018.8 hPa East 3.2 km/h 8 km/h 89 % 0 mm 0 W/m2
23:54 14.8 °C 13 °C 1018.8 hPa ENE 1.6 km/h 9.7 km/h 89 % 0 mm 0 W/m2
23:59 14.8 °C 13 °C 1018.8 hPa ENE 1.6 km/h 9.7 km/h 89 % 0 mm 0 W/m2
Delerius-Weather
Compliments of Weather Underground - 2.25 mb

Data updates at regular intervals.